sensor_id;sensor_type;location;lat;lon;timestamp;P1;durP1;ratioP1;P2;durP2;ratioP2
70312;SDS011;57723;51.698;5.344;2023-07-08T00:00:52;4.43;;;2.05;;
70312;SDS011;57723;51.698;5.344;2023-07-08T00:03:18;4.17;;;2.27;;
70312;SDS011;57723;51.698;5.344;2023-07-08T00:05:44;3.77;;;2.30;;
70312;SDS011;57723;51.698;5.344;2023-07-08T00:08:11;4.90;;;2.22;;
70312;SDS011;57723;51.698;5.344;2023-07-08T00:10:37;3.92;;;2.22;;
70312;SDS011;57723;51.698;5.344;2023-07-08T00:13:03;4.00;;;2.27;;
70312;SDS011;57723;51.698;5.344;2023-07-08T00:15:29;3.27;;;1.90;;
70312;SDS011;57723;51.698;5.344;2023-07-08T00:17:55;3.90;;;2.05;;
70312;SDS011;57723;51.698;5.344;2023-07-08T00:22:58;4.80;;;2.10;;
70312;SDS011;57723;51.698;5.344;2023-07-08T00:25:26;3.97;;;2.20;;
70312;SDS011;57723;51.698;5.344;2023-07-08T00:27:51;4.53;;;2.13;;
70312;SDS011;57723;51.698;5.344;2023-07-08T00:32:42;3.03;;;2.00;;
70312;SDS011;57723;51.698;5.344;2023-07-08T00:35:08;4.47;;;2.10;;
70312;SDS011;57723;51.698;5.344;2023-07-08T00:37:33;4.40;;;2.00;;
70312;SDS011;57723;51.698;5.344;2023-07-08T00:39:59;5.10;;;2.20;;
70312;SDS011;57723;51.698;5.344;2023-07-08T00:42:24;4.73;;;2.03;;
70312;SDS011;57723;51.698;5.344;2023-07-08T00:44:50;4.13;;;2.13;;
70312;SDS011;57723;51.698;5.344;2023-07-08T00:47:16;3.97;;;2.20;;
70312;SDS011;57723;51.698;5.344;2023-07-08T00:49:48;5.70;;;2.00;;
70312;SDS011;57723;51.698;5.344;2023-07-08T00:52:20;3.50;;;2.20;;
70312;SDS011;57723;51.698;5.344;2023-07-08T00:54:46;5.30;;;2.00;;
70312;SDS011;57723;51.698;5.344;2023-07-08T00:57:11;4.35;;;2.13;;
70312;SDS011;57723;51.698;5.344;2023-07-08T00:59:56;3.10;;;1.83;;
70312;SDS011;57723;51.698;5.344;2023-07-08T01:02:23;4.40;;;2.33;;
70312;SDS011;57723;51.698;5.344;2023-07-08T01:04:53;5.35;;;2.08;;
70312;SDS011;57723;51.698;5.344;2023-07-08T01:07:20;4.30;;;1.90;;
70312;SDS011;57723;51.698;5.344;2023-07-08T01:10:00;3.43;;;1.90;;
70312;SDS011;57723;51.698;5.344;2023-07-08T01:12:29;4.28;;;1.95;;
70312;SDS011;57723;51.698;5.344;2023-07-08T01:14:56;3.38;;;1.98;;
70312;SDS011;57723;51.698;5.344;2023-07-08T01:17:23;4.10;;;2.00;;
70312;SDS011;57723;51.698;5.344;2023-07-08T01:19:48;3.63;;;1.90;;
70312;SDS011;57723;51.698;5.344;2023-07-08T01:22:14;5.47;;;2.22;;
70312;SDS011;57723;51.698;5.344;2023-07-08T01:24:43;3.60;;;2.07;;
70312;SDS011;57723;51.698;5.344;2023-07-08T01:27:12;3.50;;;1.90;;
70312;SDS011;57723;51.698;5.344;2023-07-08T01:29:38;4.20;;;2.60;;
70312;SDS011;57723;51.698;5.344;2023-07-08T01:32:03;4.23;;;2.17;;
70312;SDS011;57723;51.698;5.344;2023-07-08T01:34:30;3.72;;;1.95;;
70312;SDS011;57723;51.698;5.344;2023-07-08T01:36:56;3.27;;;2.00;;
70312;SDS011;57723;51.698;5.344;2023-07-08T01:39:24;4.10;;;2.22;;
70312;SDS011;57723;51.698;5.344;2023-07-08T01:41:49;3.97;;;1.70;;
70312;SDS011;57723;51.698;5.344;2023-07-08T01:44:23;4.60;;;2.05;;
70312;SDS011;57723;51.698;5.344;2023-07-08T01:46:49;2.95;;;1.92;;
70312;SDS011;57723;51.698;5.344;2023-07-08T01:49:16;3.33;;;1.90;;
70312;SDS011;57723;51.698;5.344;2023-07-08T01:51:41;5.88;;;2.10;;
70312;SDS011;57723;51.698;5.344;2023-07-08T01:54:07;3.57;;;1.97;;
70312;SDS011;57723;51.698;5.344;2023-07-08T01:56:32;4.63;;;2.20;;
70312;SDS011;57723;51.698;5.344;2023-07-08T01:58:58;3.00;;;1.87;;
70312;SDS011;57723;51.698;5.344;2023-07-08T02:01:23;3.70;;;2.00;;
70312;SDS011;57723;51.698;5.344;2023-07-08T02:03:48;3.30;;;2.03;;
70312;SDS011;57723;51.698;5.344;2023-07-08T02:06:14;3.13;;;2.00;;
70312;SDS011;57723;51.698;5.344;2023-07-08T02:08:39;5.97;;;2.10;;
70312;SDS011;57723;51.698;5.344;2023-07-08T02:11:05;4.22;;;2.05;;
70312;SDS011;57723;51.698;5.344;2023-07-08T02:13:30;4.53;;;2.20;;
70312;SDS011;57723;51.698;5.344;2023-07-08T02:15:55;5.33;;;2.00;;
70312;SDS011;57723;51.698;5.344;2023-07-08T02:18:21;2.77;;;1.67;;
70312;SDS011;57723;51.698;5.344;2023-07-08T02:20:49;5.63;;;2.13;;
70312;SDS011;57723;51.698;5.344;2023-07-08T02:23:15;4.47;;;2.00;;
70312;SDS011;57723;51.698;5.344;2023-07-08T02:25:40;3.63;;;1.80;;
70312;SDS011;57723;51.698;5.344;2023-07-08T02:28:06;4.80;;;2.00;;
70312;SDS011;57723;51.698;5.344;2023-07-08T02:30:31;3.80;;;1.80;;
70312;SDS011;57723;51.698;5.344;2023-07-08T02:32:56;6.57;;;2.10;;
70312;SDS011;57723;51.698;5.344;2023-07-08T02:35:25;3.23;;;1.87;;
70312;SDS011;57723;51.698;5.344;2023-07-08T02:37:51;6.13;;;2.30;;
70312;SDS011;57723;51.698;5.344;2023-07-08T02:40:17;3.77;;;2.00;;
70312;SDS011;57723;51.698;5.344;2023-07-08T02:42:42;3.35;;;1.83;;
70312;SDS011;57723;51.698;5.344;2023-07-08T02:45:08;3.10;;;1.80;;
70312;SDS011;57723;51.698;5.344;2023-07-08T02:47:39;3.50;;;2.00;;
70312;SDS011;57723;51.698;5.344;2023-07-08T02:50:05;3.40;;;1.70;;
70312;SDS011;57723;51.698;5.344;2023-07-08T02:52:31;2.90;;;1.80;;
70312;SDS011;57723;51.698;5.344;2023-07-08T02:54:56;4.03;;;1.90;;
70312;SDS011;57723;51.698;5.344;2023-07-08T02:57:22;3.60;;;1.97;;
70312;SDS011;57723;51.698;5.344;2023-07-08T02:59:47;3.33;;;1.97;;
70312;SDS011;57723;51.698;5.344;2023-07-08T03:02:12;4.73;;;2.10;;
70312;SDS011;57723;51.698;5.344;2023-07-08T03:04:37;4.80;;;1.90;;
70312;SDS011;57723;51.698;5.344;2023-07-08T03:07:04;3.50;;;1.80;;
70312;SDS011;57723;51.698;5.344;2023-07-08T03:09:30;3.47;;;1.90;;
70312;SDS011;57723;51.698;5.344;2023-07-08T03:11:57;4.75;;;1.98;;
70312;SDS011;57723;51.698;5.344;2023-07-08T03:14:22;3.63;;;1.80;;
70312;SDS011;57723;51.698;5.344;2023-07-08T03:16:48;3.65;;;2.30;;
70312;SDS011;57723;51.698;5.344;2023-07-08T03:19:13;4.23;;;1.77;;
70312;SDS011;57723;51.698;5.344;2023-07-08T03:21:42;4.78;;;2.00;;
70312;SDS011;57723;51.698;5.344;2023-07-08T03:24:10;3.00;;;1.67;;
70312;SDS011;57723;51.698;5.344;2023-07-08T03:26:38;3.90;;;2.03;;
70312;SDS011;57723;51.698;5.344;2023-07-08T03:29:04;3.10;;;1.93;;
70312;SDS011;57723;51.698;5.344;2023-07-08T03:31:29;3.75;;;1.90;;
70312;SDS011;57723;51.698;5.344;2023-07-08T03:33:57;3.53;;;1.70;;
70312;SDS011;57723;51.698;5.344;2023-07-08T03:36:23;4.43;;;1.70;;
70312;SDS011;57723;51.698;5.344;2023-07-08T03:38:49;3.20;;;1.90;;
70312;SDS011;57723;51.698;5.344;2023-07-08T03:41:14;7.22;;;2.10;;
70312;SDS011;57723;51.698;5.344;2023-07-08T03:43:40;3.27;;;1.83;;
70312;SDS011;57723;51.698;5.344;2023-07-08T03:46:07;4.73;;;2.20;;
70312;SDS011;57723;51.698;5.344;2023-07-08T03:48:32;3.05;;;1.70;;
70312;SDS011;57723;51.698;5.344;2023-07-08T03:50:57;4.23;;;1.90;;
70312;SDS011;57723;51.698;5.344;2023-07-08T03:53:23;3.73;;;1.90;;
70312;SDS011;57723;51.698;5.344;2023-07-08T03:55:48;3.38;;;1.90;;
70312;SDS011;57723;51.698;5.344;2023-07-08T03:58:13;3.73;;;1.97;;
70312;SDS011;57723;51.698;5.344;2023-07-08T04:00:39;3.77;;;2.10;;
70312;SDS011;57723;51.698;5.344;2023-07-08T04:03:05;4.32;;;1.90;;
70312;SDS011;57723;51.698;5.344;2023-07-08T04:05:30;4.10;;;2.30;;
70312;SDS011;57723;51.698;5.344;2023-07-08T04:07:58;2.95;;;1.80;;
70312;SDS011;57723;51.698;5.344;2023-07-08T04:10:24;3.93;;;1.70;;
70312;SDS011;57723;51.698;5.344;2023-07-08T04:12:49;4.70;;;1.97;;
70312;SDS011;57723;51.698;5.344;2023-07-08T04:15:14;3.77;;;2.03;;
70312;SDS011;57723;51.698;5.344;2023-07-08T04:17:42;3.55;;;2.00;;
70312;SDS011;57723;51.698;5.344;2023-07-08T04:20:10;3.03;;;1.80;;
70312;SDS011;57723;51.698;5.344;2023-07-08T04:22:36;3.05;;;1.70;;
70312;SDS011;57723;51.698;5.344;2023-07-08T04:25:02;4.20;;;2.00;;
70312;SDS011;57723;51.698;5.344;2023-07-08T04:27:29;4.07;;;2.17;;
70312;SDS011;57723;51.698;5.344;2023-07-08T04:29:55;4.13;;;2.00;;
70312;SDS011;57723;51.698;5.344;2023-07-08T04:32:20;2.72;;;1.83;;
70312;SDS011;57723;51.698;5.344;2023-07-08T04:34:49;5.78;;;2.10;;
70312;SDS011;57723;51.698;5.344;2023-07-08T04:37:15;4.03;;;2.00;;
70312;SDS011;57723;51.698;5.344;2023-07-08T04:39:44;3.88;;;1.80;;
70312;SDS011;57723;51.698;5.344;2023-07-08T04:42:09;4.40;;;1.70;;
70312;SDS011;57723;51.698;5.344;2023-07-08T04:44:38;3.92;;;2.00;;
70312;SDS011;57723;51.698;5.344;2023-07-08T04:47:03;4.03;;;1.90;;
70312;SDS011;57723;51.698;5.344;2023-07-08T04:49:29;3.30;;;2.00;;
70312;SDS011;57723;51.698;5.344;2023-07-08T04:51:56;2.72;;;1.50;;
70312;SDS011;57723;51.698;5.344;2023-07-08T04:54:22;2.92;;;1.83;;
70312;SDS011;57723;51.698;5.344;2023-07-08T04:56:48;5.60;;;1.90;;
70312;SDS011;57723;51.698;5.344;2023-07-08T04:59:16;7.53;;;1.80;;
70312;SDS011;57723;51.698;5.344;2023-07-08T05:01:42;3.23;;;1.83;;
70312;SDS011;57723;51.698;5.344;2023-07-08T05:04:09;4.03;;;1.90;;
70312;SDS011;57723;51.698;5.344;2023-07-08T05:06:34;3.20;;;1.98;;
70312;SDS011;57723;51.698;5.344;2023-07-08T05:09:00;3.17;;;1.80;;
70312;SDS011;57723;51.698;5.344;2023-07-08T05:11:26;5.50;;;1.98;;
70312;SDS011;57723;51.698;5.344;2023-07-08T05:13:51;4.10;;;2.00;;
70312;SDS011;57723;51.698;5.344;2023-07-08T05:16:22;4.20;;;1.70;;
70312;SDS011;57723;51.698;5.344;2023-07-08T05:18:51;14.70;;;1.90;;
70312;SDS011;57723;51.698;5.344;2023-07-08T05:21:17;5.45;;;1.80;;
70312;SDS011;57723;51.698;5.344;2023-07-08T05:23:44;5.45;;;1.80;;
70312;SDS011;57723;51.698;5.344;2023-07-08T05:26:09;6.73;;;2.10;;
70312;SDS011;57723;51.698;5.344;2023-07-08T05:28:35;3.60;;;1.90;;
70312;SDS011;57723;51.698;5.344;2023-07-08T05:31:00;4.15;;;1.77;;
70312;SDS011;57723;51.698;5.344;2023-07-08T05:33:28;5.57;;;1.77;;
70312;SDS011;57723;51.698;5.344;2023-07-08T05:35:54;7.68;;;1.63;;
70312;SDS011;57723;51.698;5.344;2023-07-08T05:38:20;6.53;;;1.90;;
70312;SDS011;57723;51.698;5.344;2023-07-08T05:40:49;8.80;;;2.00;;
70312;SDS011;57723;51.698;5.344;2023-07-08T05:43:15;4.20;;;2.00;;
70312;SDS011;57723;51.698;5.344;2023-07-08T05:45:42;7.32;;;2.30;;
70312;SDS011;57723;51.698;5.344;2023-07-08T05:48:07;4.05;;;2.00;;
70312;SDS011;57723;51.698;5.344;2023-07-08T05:50:33;3.87;;;1.97;;
70312;SDS011;57723;51.698;5.344;2023-07-08T05:52:58;4.50;;;1.93;;
70312;SDS011;57723;51.698;5.344;2023-07-08T05:55:24;4.40;;;1.90;;
70312;SDS011;57723;51.698;5.344;2023-07-08T05:57:52;4.07;;;2.13;;
70312;SDS011;57723;51.698;5.344;2023-07-08T06:00:20;5.57;;;2.00;;
70312;SDS011;57723;51.698;5.344;2023-07-08T06:02:48;3.78;;;2.00;;
70312;SDS011;57723;51.698;5.344;2023-07-08T06:05:13;6.70;;;2.35;;
70312;SDS011;57723;51.698;5.344;2023-07-08T06:07:39;4.63;;;2.00;;
70312;SDS011;57723;51.698;5.344;2023-07-08T06:10:10;5.45;;;2.20;;
70312;SDS011;57723;51.698;5.344;2023-07-08T06:12:35;3.92;;;2.30;;
70312;SDS011;57723;51.698;5.344;2023-07-08T06:15:00;3.57;;;2.10;;
70312;SDS011;57723;51.698;5.344;2023-07-08T06:17:29;5.47;;;2.25;;
70312;SDS011;57723;51.698;5.344;2023-07-08T06:19:54;4.40;;;1.90;;
70312;SDS011;57723;51.698;5.344;2023-07-08T06:22:24;5.80;;;2.00;;
70312;SDS011;57723;51.698;5.344;2023-07-08T06:24:49;3.80;;;2.40;;
70312;SDS011;57723;51.698;5.344;2023-07-08T06:27:20;4.40;;;2.30;;
70312;SDS011;57723;51.698;5.344;2023-07-08T06:29:49;4.90;;;2.50;;
70312;SDS011;57723;51.698;5.344;2023-07-08T06:32:14;9.68;;;2.40;;
70312;SDS011;57723;51.698;5.344;2023-07-08T06:34:43;7.22;;;2.20;;
70312;SDS011;57723;51.698;5.344;2023-07-08T06:37:09;4.30;;;2.20;;
70312;SDS011;57723;51.698;5.344;2023-07-08T06:39:36;4.18;;;2.40;;
70312;SDS011;57723;51.698;5.344;2023-07-08T06:42:05;7.72;;;2.28;;
70312;SDS011;57723;51.698;5.344;2023-07-08T06:44:30;8.63;;;2.60;;
70312;SDS011;57723;51.698;5.344;2023-07-08T06:46:56;11.47;;;2.70;;
70312;SDS011;57723;51.698;5.344;2023-07-08T06:49:21;7.05;;;2.50;;
70312;SDS011;57723;51.698;5.344;2023-07-08T06:51:47;5.40;;;2.50;;
70312;SDS011;57723;51.698;5.344;2023-07-08T06:54:12;10.43;;;2.60;;
70312;SDS011;57723;51.698;5.344;2023-07-08T06:56:38;8.40;;;2.50;;
70312;SDS011;57723;51.698;5.344;2023-07-08T06:59:06;7.50;;;2.50;;
70312;SDS011;57723;51.698;5.344;2023-07-08T07:01:35;6.67;;;2.50;;
70312;SDS011;57723;51.698;5.344;2023-07-08T07:04:04;5.47;;;2.08;;
70312;SDS011;57723;51.698;5.344;2023-07-08T07:06:29;6.05;;;2.58;;
70312;SDS011;57723;51.698;5.344;2023-07-08T07:08:55;9.67;;;2.60;;
70312;SDS011;57723;51.698;5.344;2023-07-08T07:11:20;6.90;;;2.50;;
70312;SDS011;57723;51.698;5.344;2023-07-08T07:13:46;6.57;;;2.80;;
70312;SDS011;57723;51.698;5.344;2023-07-08T07:16:14;7.20;;;2.78;;
70312;SDS011;57723;51.698;5.344;2023-07-08T07:18:39;9.53;;;2.83;;
70312;SDS011;57723;51.698;5.344;2023-07-08T07:21:04;5.07;;;2.40;;
70312;SDS011;57723;51.698;5.344;2023-07-08T07:23:30;5.83;;;2.50;;
70312;SDS011;57723;51.698;5.344;2023-07-08T07:25:55;6.57;;;2.40;;
70312;SDS011;57723;51.698;5.344;2023-07-08T07:28:22;6.05;;;2.50;;
70312;SDS011;57723;51.698;5.344;2023-07-08T07:30:47;5.77;;;2.57;;
70312;SDS011;57723;51.698;5.344;2023-07-08T07:33:20;15.85;;;3.50;;
70312;SDS011;57723;51.698;5.344;2023-07-08T07:35:45;6.17;;;3.00;;
70312;SDS011;57723;51.698;5.344;2023-07-08T07:38:11;7.32;;;2.60;;
70312;SDS011;57723;51.698;5.344;2023-07-08T07:40:36;9.20;;;2.70;;
70312;SDS011;57723;51.698;5.344;2023-07-08T07:43:06;8.57;;;2.65;;
70312;SDS011;57723;51.698;5.344;2023-07-08T07:45:32;6.70;;;2.75;;
70312;SDS011;57723;51.698;5.344;2023-07-08T07:47:57;9.00;;;3.40;;
70312;SDS011;57723;51.698;5.344;2023-07-08T07:50:22;8.43;;;3.03;;
70312;SDS011;57723;51.698;5.344;2023-07-08T07:52:48;7.87;;;3.07;;
70312;SDS011;57723;51.698;5.344;2023-07-08T07:55:14;7.53;;;3.10;;
70312;SDS011;57723;51.698;5.344;2023-07-08T07:57:39;6.43;;;2.77;;
70312;SDS011;57723;51.698;5.344;2023-07-08T08:00:07;7.68;;;3.00;;
70312;SDS011;57723;51.698;5.344;2023-07-08T08:02:34;7.10;;;3.25;;
70312;SDS011;57723;51.698;5.344;2023-07-08T08:04:59;5.83;;;2.73;;
70312;SDS011;57723;51.698;5.344;2023-07-08T08:07:25;7.32;;;3.40;;
70312;SDS011;57723;51.698;5.344;2023-07-08T08:09:51;10.83;;;3.33;;
70312;SDS011;57723;51.698;5.344;2023-07-08T08:12:19;9.40;;;3.40;;
70312;SDS011;57723;51.698;5.344;2023-07-08T08:14:44;8.50;;;2.90;;
70312;SDS011;57723;51.698;5.344;2023-07-08T08:17:10;9.07;;;3.40;;
70312;SDS011;57723;51.698;5.344;2023-07-08T08:19:37;6.97;;;2.80;;
70312;SDS011;57723;51.698;5.344;2023-07-08T08:22:03;7.67;;;2.97;;
70312;SDS011;57723;51.698;5.344;2023-07-08T08:24:28;9.83;;;2.97;;
70312;SDS011;57723;51.698;5.344;2023-07-08T08:26:54;9.32;;;3.33;;
70312;SDS011;57723;51.698;5.344;2023-07-08T08:29:19;8.03;;;3.10;;
70312;SDS011;57723;51.698;5.344;2023-07-08T08:31:45;9.77;;;2.97;;
70312;SDS011;57723;51.698;5.344;2023-07-08T08:34:10;10.27;;;3.50;;
70312;SDS011;57723;51.698;5.344;2023-07-08T08:36:36;8.32;;;3.33;;
70312;SDS011;57723;51.698;5.344;2023-07-08T08:39:02;7.17;;;2.87;;
70312;SDS011;57723;51.698;5.344;2023-07-08T08:41:31;7.85;;;3.30;;
70312;SDS011;57723;51.698;5.344;2023-07-08T08:43:57;7.10;;;3.23;;
70312;SDS011;57723;51.698;5.344;2023-07-08T08:49:17;6.20;;;3.15;;
70312;SDS011;57723;51.698;5.344;2023-07-08T08:51:47;8.27;;;3.53;;
70312;SDS011;57723;51.698;5.344;2023-07-08T08:54:13;8.30;;;3.45;;
70312;SDS011;57723;51.698;5.344;2023-07-08T08:59:22;7.75;;;3.70;;
70312;SDS011;57723;51.698;5.344;2023-07-08T09:01:50;7.35;;;3.50;;
70312;SDS011;57723;51.698;5.344;2023-07-08T09:04:25;8.00;;;3.55;;
70312;SDS011;57723;51.698;5.344;2023-07-08T09:06:52;8.95;;;3.80;;
70312;SDS011;57723;51.698;5.344;2023-07-08T09:09:27;7.97;;;3.70;;
70312;SDS011;57723;51.698;5.344;2023-07-08T09:12:00;9.30;;;3.60;;
70312;SDS011;57723;51.698;5.344;2023-07-08T09:14:28;6.75;;;3.35;;
70312;SDS011;57723;51.698;5.344;2023-07-08T09:19:33;7.60;;;3.55;;
70312;SDS011;57723;51.698;5.344;2023-07-08T09:22:04;5.77;;;3.23;;
70312;SDS011;57723;51.698;5.344;2023-07-08T09:24:40;6.10;;;3.70;;
70312;SDS011;57723;51.698;5.344;2023-07-08T09:27:09;6.88;;;3.75;;
70312;SDS011;57723;51.698;5.344;2023-07-08T09:29:35;7.53;;;4.20;;
70312;SDS011;57723;51.698;5.344;2023-07-08T09:32:01;8.30;;;4.10;;
70312;SDS011;57723;51.698;5.344;2023-07-08T09:34:46;8.43;;;3.95;;
70312;SDS011;57723;51.698;5.344;2023-07-08T09:37:22;6.00;;;3.70;;
70312;SDS011;57723;51.698;5.344;2023-07-08T09:39:48;6.73;;;3.63;;
70312;SDS011;57723;51.698;5.344;2023-07-08T09:42:13;7.18;;;3.75;;
70312;SDS011;57723;51.698;5.344;2023-07-08T09:44:40;7.43;;;3.88;;
70312;SDS011;57723;51.698;5.344;2023-07-08T09:47:22;8.90;;;3.93;;
70312;SDS011;57723;51.698;5.344;2023-07-08T09:49:48;7.88;;;3.60;;
70312;SDS011;57723;51.698;5.344;2023-07-08T09:52:19;8.37;;;4.23;;
70312;SDS011;57723;51.698;5.344;2023-07-08T09:54:44;9.45;;;4.10;;
70312;SDS011;57723;51.698;5.344;2023-07-08T09:59:49;9.15;;;3.88;;
70312;SDS011;57723;51.698;5.344;2023-07-08T10:04:52;8.57;;;3.87;;
70312;SDS011;57723;51.698;5.344;2023-07-08T10:07:18;7.38;;;3.90;;
70312;SDS011;57723;51.698;5.344;2023-07-08T10:09:43;7.37;;;4.03;;
70312;SDS011;57723;51.698;5.344;2023-07-08T10:12:14;15.30;;;4.45;;
70312;SDS011;57723;51.698;5.344;2023-07-08T10:14:45;10.27;;;4.32;;
70312;SDS011;57723;51.698;5.344;2023-07-08T10:17:13;8.27;;;4.10;;
70312;SDS011;57723;51.698;5.344;2023-07-08T10:19:40;8.82;;;4.50;;
70312;SDS011;57723;51.698;5.344;2023-07-08T10:27:08;7.40;;;3.95;;
70312;SDS011;57723;51.698;5.344;2023-07-08T10:29:45;9.10;;;3.88;;
70312;SDS011;57723;51.698;5.344;2023-07-08T10:35:01;8.57;;;4.13;;
70312;SDS011;57723;51.698;5.344;2023-07-08T10:40:15;10.18;;;4.57;;
70312;SDS011;57723;51.698;5.344;2023-07-08T10:43:06;9.63;;;4.32;;
70312;SDS011;57723;51.698;5.344;2023-07-08T10:45:31;8.32;;;4.43;;
70312;SDS011;57723;51.698;5.344;2023-07-08T10:48:23;8.43;;;3.83;;
70312;SDS011;57723;51.698;5.344;2023-07-08T10:51:02;8.80;;;4.53;;
70312;SDS011;57723;51.698;5.344;2023-07-08T10:54:17;9.20;;;4.28;;
70312;SDS011;57723;51.698;5.344;2023-07-08T10:56:23;8.50;;;4.65;;
70312;SDS011;57723;51.698;5.344;2023-07-08T11:04:23;6.77;;;4.00;;
70312;SDS011;57723;51.698;5.344;2023-07-08T11:07:39;8.68;;;4.13;;
70312;SDS011;57723;51.698;5.344;2023-07-08T11:09:46;9.30;;;4.85;;
70312;SDS011;57723;51.698;5.344;2023-07-08T11:17:33;8.50;;;4.40;;
70312;SDS011;57723;51.698;5.344;2023-07-08T11:22:30;7.88;;;4.38;;
70312;SDS011;57723;51.698;5.344;2023-07-08T11:24:57;9.50;;;4.65;;
70312;SDS011;57723;51.698;5.344;2023-07-08T11:27:42;7.78;;;4.80;;
70312;SDS011;57723;51.698;5.344;2023-07-08T11:32:37;8.90;;;4.28;;
70312;SDS011;57723;51.698;5.344;2023-07-08T11:35:07;8.07;;;4.40;;
70312;SDS011;57723;51.698;5.344;2023-07-08T11:37:38;9.05;;;4.70;;
70312;SDS011;57723;51.698;5.344;2023-07-08T11:45:07;8.18;;;4.78;;
70312;SDS011;57723;51.698;5.344;2023-07-08T11:47:49;10.93;;;4.40;;
70312;SDS011;57723;51.698;5.344;2023-07-08T11:50:45;9.13;;;4.82;;
70312;SDS011;57723;51.698;5.344;2023-07-08T11:53:12;8.20;;;4.47;;
70312;SDS011;57723;51.698;5.344;2023-07-08T11:55:42;11.15;;;4.80;;
70312;SDS011;57723;51.698;5.344;2023-07-08T11:58:15;8.07;;;4.40;;
70312;SDS011;57723;51.698;5.344;2023-07-08T12:00:44;8.93;;;4.70;;
70312;SDS011;57723;51.698;5.344;2023-07-08T12:03:20;10.75;;;4.60;;
70312;SDS011;57723;51.698;5.344;2023-07-08T12:05:46;7.72;;;4.55;;
70312;SDS011;57723;51.698;5.344;2023-07-08T12:08:13;12.83;;;5.07;;
70312;SDS011;57723;51.698;5.344;2023-07-08T12:10:49;11.10;;;4.80;;
70312;SDS011;57723;51.698;5.344;2023-07-08T12:13:16;10.27;;;4.97;;
70312;SDS011;57723;51.698;5.344;2023-07-08T12:15:42;7.78;;;4.70;;
70312;SDS011;57723;51.698;5.344;2023-07-08T12:20:37;8.30;;;4.30;;
70312;SDS011;57723;51.698;5.344;2023-07-08T12:23:08;8.45;;;4.18;;
70312;SDS011;57723;51.698;5.344;2023-07-08T12:25:37;9.07;;;4.55;;
70312;SDS011;57723;51.698;5.344;2023-07-08T12:28:03;10.00;;;4.53;;
70312;SDS011;57723;51.698;5.344;2023-07-08T12:30:29;9.60;;;5.10;;
70312;SDS011;57723;51.698;5.344;2023-07-08T12:32:55;8.95;;;4.47;;
70312;SDS011;57723;51.698;5.344;2023-07-08T12:35:28;8.40;;;4.50;;
70312;SDS011;57723;51.698;5.344;2023-07-08T12:37:58;7.93;;;4.40;;
70312;SDS011;57723;51.698;5.344;2023-07-08T12:40:25;9.52;;;4.90;;
70312;SDS011;57723;51.698;5.344;2023-07-08T12:42:51;8.40;;;4.45;;
70312;SDS011;57723;51.698;5.344;2023-07-08T12:45:18;8.67;;;4.60;;
70312;SDS011;57723;51.698;5.344;2023-07-08T12:47:44;7.73;;;4.37;;
70312;SDS011;57723;51.698;5.344;2023-07-08T12:50:10;9.95;;;4.50;;
70312;SDS011;57723;51.698;5.344;2023-07-08T12:52:36;12.75;;;4.47;;
70312;SDS011;57723;51.698;5.344;2023-07-08T12:55:01;9.47;;;5.20;;
70312;SDS011;57723;51.698;5.344;2023-07-08T12:57:27;8.67;;;5.07;;
70312;SDS011;57723;51.698;5.344;2023-07-08T12:59:52;9.13;;;4.80;;
70312;SDS011;57723;51.698;5.344;2023-07-08T13:02:19;8.70;;;4.70;;
70312;SDS011;57723;51.698;5.344;2023-07-08T13:04:45;9.25;;;4.75;;
70312;SDS011;57723;51.698;5.344;2023-07-08T13:10:17;7.67;;;4.33;;
70312;SDS011;57723;51.698;5.344;2023-07-08T13:12:43;8.50;;;4.65;;
70312;SDS011;57723;51.698;5.344;2023-07-08T13:15:14;8.52;;;4.70;;
70312;SDS011;57723;51.698;5.344;2023-07-08T13:17:41;8.73;;;4.40;;
70312;SDS011;57723;51.698;5.344;2023-07-08T13:20:14;10.50;;;4.68;;
70312;SDS011;57723;51.698;5.344;2023-07-08T13:22:40;7.63;;;4.40;;
70312;SDS011;57723;51.698;5.344;2023-07-08T13:25:12;9.80;;;4.45;;
70312;SDS011;57723;51.698;5.344;2023-07-08T13:27:38;8.93;;;4.30;;
70312;SDS011;57723;51.698;5.344;2023-07-08T13:30:15;9.23;;;4.43;;
70312;SDS011;57723;51.698;5.344;2023-07-08T13:32:41;7.78;;;4.35;;
70312;SDS011;57723;51.698;5.344;2023-07-08T13:35:20;9.47;;;4.63;;
70312;SDS011;57723;51.698;5.344;2023-07-08T13:37:46;11.10;;;4.63;;
70312;SDS011;57723;51.698;5.344;2023-07-08T13:40:13;9.50;;;4.53;;
70312;SDS011;57723;51.698;5.344;2023-07-08T13:42:38;8.60;;;4.20;;
70312;SDS011;57723;51.698;5.344;2023-07-08T13:45:15;11.93;;;4.85;;
70312;SDS011;57723;51.698;5.344;2023-07-08T13:47:41;9.68;;;4.18;;
70312;SDS011;57723;51.698;5.344;2023-07-08T13:50:23;9.17;;;4.30;;
70312;SDS011;57723;51.698;5.344;2023-07-08T13:52:54;9.65;;;4.63;;
70312;SDS011;57723;51.698;5.344;2023-07-08T13:55:21;11.00;;;4.40;;
70312;SDS011;57723;51.698;5.344;2023-07-08T13:57:54;9.23;;;4.40;;
70312;SDS011;57723;51.698;5.344;2023-07-08T14:00:20;9.90;;;4.80;;
70312;SDS011;57723;51.698;5.344;2023-07-08T14:02:46;7.90;;;4.27;;
70312;SDS011;57723;51.698;5.344;2023-07-08T14:05:12;8.07;;;4.38;;
70312;SDS011;57723;51.698;5.344;2023-07-08T14:07:45;11.27;;;4.97;;
70312;SDS011;57723;51.698;5.344;2023-07-08T14:10:13;8.13;;;4.33;;
70312;SDS011;57723;51.698;5.344;2023-07-08T14:12:41;9.10;;;4.47;;
70312;SDS011;57723;51.698;5.344;2023-07-08T14:15:10;8.77;;;4.13;;
70312;SDS011;57723;51.698;5.344;2023-07-08T14:17:38;8.52;;;4.65;;
70312;SDS011;57723;51.698;5.344;2023-07-08T14:20:10;9.50;;;4.63;;
70312;SDS011;57723;51.698;5.344;2023-07-08T14:22:37;10.00;;;4.68;;
70312;SDS011;57723;51.698;5.344;2023-07-08T14:25:07;8.40;;;4.70;;
70312;SDS011;57723;51.698;5.344;2023-07-08T14:27:44;9.02;;;4.70;;
70312;SDS011;57723;51.698;5.344;2023-07-08T14:30:13;9.15;;;4.13;;
70312;SDS011;57723;51.698;5.344;2023-07-08T14:32:43;8.37;;;4.43;;
70312;SDS011;57723;51.698;5.344;2023-07-08T14:35:24;8.98;;;4.22;;
70312;SDS011;57723;51.698;5.344;2023-07-08T14:37:56;8.02;;;4.10;;
70312;SDS011;57723;51.698;5.344;2023-07-08T14:40:43;10.30;;;4.70;;
70312;SDS011;57723;51.698;5.344;2023-07-08T14:43:11;7.55;;;4.00;;
70312;SDS011;57723;51.698;5.344;2023-07-08T14:45:46;8.00;;;4.03;;
70312;SDS011;57723;51.698;5.344;2023-07-08T14:48:13;7.80;;;3.65;;
70312;SDS011;57723;51.698;5.344;2023-07-08T14:50:38;7.78;;;3.80;;
70312;SDS011;57723;51.698;5.344;2023-07-08T14:53:04;7.07;;;4.23;;
70312;SDS011;57723;51.698;5.344;2023-07-08T14:55:29;6.20;;;3.70;;
70312;SDS011;57723;51.698;5.344;2023-07-08T14:57:55;11.33;;;4.17;;
70312;SDS011;57723;51.698;5.344;2023-07-08T15:00:24;7.55;;;3.78;;
70312;SDS011;57723;51.698;5.344;2023-07-08T15:02:56;8.27;;;4.13;;
70312;SDS011;57723;51.698;5.344;2023-07-08T15:05:27;5.97;;;3.55;;
70312;SDS011;57723;51.698;5.344;2023-07-08T15:07:54;7.05;;;3.60;;
70312;SDS011;57723;51.698;5.344;2023-07-08T15:10:19;7.20;;;3.85;;
70312;SDS011;57723;51.698;5.344;2023-07-08T15:12:46;8.82;;;4.30;;
70312;SDS011;57723;51.698;5.344;2023-07-08T15:15:16;8.13;;;4.37;;
70312;SDS011;57723;51.698;5.344;2023-07-08T15:17:42;6.72;;;3.85;;
70312;SDS011;57723;51.698;5.344;2023-07-08T15:20:11;8.35;;;4.18;;
70312;SDS011;57723;51.698;5.344;2023-07-08T15:22:40;7.13;;;3.95;;
70312;SDS011;57723;51.698;5.344;2023-07-08T15:25:06;6.67;;;3.57;;
70312;SDS011;57723;51.698;5.344;2023-07-08T15:27:31;6.65;;;3.80;;
70312;SDS011;57723;51.698;5.344;2023-07-08T15:29:57;7.68;;;3.88;;
70312;SDS011;57723;51.698;5.344;2023-07-08T15:32:22;7.37;;;3.83;;
70312;SDS011;57723;51.698;5.344;2023-07-08T15:34:48;7.33;;;4.20;;
70312;SDS011;57723;51.698;5.344;2023-07-08T15:37:13;8.45;;;4.43;;
70312;SDS011;57723;51.698;5.344;2023-07-08T15:39:39;12.10;;;4.30;;
70312;SDS011;57723;51.698;5.344;2023-07-08T15:42:07;9.40;;;4.90;;
70312;SDS011;57723;51.698;5.344;2023-07-08T15:44:33;8.73;;;4.85;;